Time;durP1;ratioP1;P1;durP2;ratioP2;P2;SDS_P1;SDS_P2;PMS_P1;PMS_P2;Temp;Humidity;BMP_temperature;BMP_pressure;BME280_temperature;BME280_humidity;BME280_pressure;Samples;Min_cycle;Max_cycle;Signal;HPM_P1;HPM_P2
2023/04/14 05:01:42;;;;;;;;;1.00;0.00;;;;;11.13;58.84;36254.47;5503533;22;45868;-86
2023/04/14 05:04:11;;;;;;;;;0.67;0.00;;;;;10.93;58.64;36840.06;4986685;28;45362;-86
2023/04/14 05:06:37;;;;;;;;;0.67;0.00;;;;;10.43;58.84;36278.38;4997574;28;45441;-86
2023/04/14 05:09:03;;;;;;;;;0.67;0.67;;;;;11.41;58.65;36506.41;4986011;28;45452;-86
2023/04/14 05:11:29;;;;;;;;;0.00;0.00;;;;;11.12;58.89;36225.25;4975632;28;45963;-86
2023/04/14 05:13:55;;;;;;;;;1.00;1.00;;;;;11.60;59.14;34740.19;4977474;28;45567;-87
2023/04/14 05:16:20;;;;;;;;;0.00;0.00;;;;;11.59;59.28;34949.94;4977242;28;45473;-86
2023/04/14 05:18:45;;;;;;;;;0.33;0.33;;;;;11.51;59.01;35540.94;4977808;28;45430;-87
2023/04/14 05:21:12;;;;;;;;;0.00;0.00;;;;;11.57;59.17;35859.59;4977131;28;46576;-86
2023/04/14 05:23:39;;;;;;;;;0.00;0.00;;;;;11.60;58.93;35693.44;4973276;28;45544;-87
2023/04/14 05:26:05;;;;;;;;;1.33;1.00;;;;;11.60;58.98;35215.78;4975683;28;45492;-88
2023/04/14 05:28:31;;;;;;;;;1.00;1.00;;;;;11.61;59.01;34565.22;4958407;28;45427;-87
2023/04/14 05:30:56;;;;;;;;;0.00;0.00;;;;;11.64;58.70;33904.84;4974081;28;46108;-87
2023/04/14 05:33:22;;;;;;;;;0.33;0.33;;;;;11.29;58.65;34737.19;4959459;28;45719;-87
2023/04/14 05:35:49;;;;;;;;;0.67;0.67;;;;;11.64;59.38;34157.16;4958442;28;45493;-87
2023/04/14 05:38:15;;;;;;;;;1.00;1.00;;;;;11.67;59.23;32260.88;4976383;28;45444;-88
2023/04/14 05:40:41;;;;;;;;;2.00;2.00;;;;;11.06;59.37;33366.72;4973406;28;47464;-87
2023/04/14 05:43:06;;;;;;;;;1.00;1.00;;;;;11.04;59.50;31155.47;4972880;28;45388;-87
2023/04/14 05:45:32;;;;;;;;;1.00;1.00;;;;;11.68;59.38;31862.56;4971882;28;45491;-87
2023/04/14 05:47:57;;;;;;;;;2.33;1.33;;;;;10.89;59.72;30812.16;4975557;28;45495;-89
2023/04/14 05:50:22;;;;;;;;;1.00;1.00;;;;;11.66;58.95;31861.72;4976686;28;47325;-87
2023/04/14 05:52:49;;;;;;;;;2.00;0.00;;;;;11.24;59.12;32845.09;4977033;28;45474;-88
2023/04/14 05:55:40;;;;;;;;;2.00;2.00;;;;;10.52;59.17;31836.63;4976422;28;45523;-88
2023/04/14 05:58:52;;;;;;;;;1.33;1.33;;;;;10.95;59.39;30144.50;4935497;28;45735;-88
2023/04/14 06:01:13;;;;;;;;;0.00;0.00;;;;;11.14;59.65;28813.38;4931728;28;47002;-89
2023/04/14 06:03:38;;;;;;;;;1.00;1.00;;;;;11.58;59.68;28835.78;4919119;28;45351;-88
2023/04/14 06:06:04;;;;;;;;;3.33;2.00;;;;;10.35;60.02;27767.94;4919135;28;45463;-88
2023/04/14 06:08:29;;;;;;;;;1.33;1.33;;;;;11.73;60.37;27501.31;4935435;28;45529;-86
2023/04/14 06:10:55;;;;;;;;;2.00;2.00;;;;;11.73;60.18;27165.53;4934384;28;45565;-87
2023/04/14 06:13:21;;;;;;;;;1.67;1.67;;;;;10.98;59.74;27799.31;4934148;28;45427;-86
2023/04/14 06:15:49;;;;;;;;;3.67;3.00;;;;;11.50;59.80;27825.13;4934726;28;45454;-86
2023/04/14 06:18:15;;;;;;;;;2.00;2.00;;;;;11.34;59.73;27817.44;4935356;28;45745;-85
2023/04/14 06:20:40;;;;;;;;;1.00;1.00;;;;;11.77;59.58;27503.06;4934875;28;45550;-86
2023/04/14 06:23:15;;;;;;;;;2.33;2.33;;;;;11.78;59.52;28175.03;4932054;28;45420;-86
2023/04/14 06:25:40;;;;;;;;;1.67;1.67;;;;;11.78;59.50;28510.66;4939551;28;45495;-85
2023/04/14 06:28:15;;;;;;;;;2.33;2.33;;;;;10.68;59.57;28454.31;4930522;28;45514;-85
2023/04/14 06:30:40;;;;;;;;;3.00;1.67;;;;;10.91;59.33;28466.31;4930863;28;46046;-85
2023/04/14 06:33:06;;;;;;;;;2.00;2.00;;;;;11.41;60.03;26479.66;4932731;28;45461;-85
2023/04/14 06:35:33;;;;;;;;;2.67;2.67;;;;;11.83;59.80;26499.47;4962807;28;45576;-84
2023/04/14 06:37:59;;;;;;;;;1.00;1.00;;;;;11.84;59.61;26499.94;4974723;28;45574;-85
2023/04/14 06:40:28;;;;;;;;;2.00;2.00;;;;;11.28;59.57;27143.78;4968260;28;47233;-87
2023/04/14 06:43:03;;;;;;;;;1.00;1.00;;;;;11.55;59.97;26486.25;4978905;28;45476;-83
2023/04/14 06:45:34;;;;;;;;;1.00;1.00;;;;;10.95;59.28;27127.81;4991590;28;45760;-83
2023/04/14 06:48:00;;;;;;;;;2.33;2.33;;;;;11.77;59.60;26832.00;4959122;28;45575;-84
2023/04/14 06:50:25;;;;;;;;;3.00;2.00;;;;;11.51;59.39;28161.34;4985819;28;45750;-84
2023/04/14 06:52:50;;;;;;;;;2.33;2.33;;;;;11.81;59.99;26498.72;4981410;28;45907;-84
2023/04/14 06:55:20;;;;;;;;;5.67;2.33;;;;;11.79;59.60;26833.25;4991910;28;45380;-84
2023/04/14 06:57:45;;;;;;;;;4.00;2.00;;;;;10.47;59.91;25765.03;4981352;28;45907;-83
2023/04/14 07:00:12;;;;;;;;;3.67;3.67;;;;;11.78;59.85;25826.13;4985768;28;47132;-84
2023/04/14 07:02:37;;;;;;;;;4.00;4.00;;;;;11.60;59.87;26153.34;4987527;28;45561;-82
2023/04/14 07:05:02;;;;;;;;;3.00;1.00;;;;;11.77;59.98;25825.63;4979420;28;45476;-82
2023/04/14 07:07:28;;;;;;;;;3.00;3.00;;;;;11.77;59.94;25490.22;4991885;28;45630;-84
2023/04/14 07:09:53;;;;;;;;;3.00;3.00;;;;;11.78;59.52;26497.25;4981642;28;47507;-82
2023/04/14 07:12:19;;;;;;;;;5.00;5.00;;;;;11.54;60.31;24474.19;4984590;28;45576;-82
2023/04/14 07:14:50;;;;;;;;;8.00;5.00;;;;;11.79;60.25;24485.13;4988661;28;45637;-82
2023/04/14 07:17:17;;;;;;;;;4.00;4.00;;;;;11.40;59.83;25473.50;4961083;28;45668;-81
2023/04/14 07:19:42;;;;;;;;;6.00;4.33;;;;;11.39;60.16;23127.22;4990151;28;46494;-82
2023/04/14 07:22:08;;;;;;;;;4.67;4.67;;;;;11.57;60.36;22799.94;4978156;28;45966;-82
2023/04/14 07:24:33;;;;;;;;;4.00;4.00;;;;;11.29;59.89;24128.00;4980915;28;45481;-82
2023/04/14 07:26:58;;;;;;;;;5.00;5.00;;;;;11.83;60.05;24486.94;4988900;28;45631;-82
2023/04/14 07:29:26;;;;;;;;;5.67;5.67;;;;;11.84;59.88;24487.63;4966751;28;47985;-85
2023/04/14 07:31:51;;;;;;;;;5.67;5.67;;;;;11.84;59.88;24822.97;4994558;28;45455;-82
2023/04/14 07:34:18;;;;;;;;;3.00;3.00;;;;;11.77;60.14;23143.25;4965361;28;45663;-82
2023/04/14 07:36:43;;;;;;;;;5.00;4.00;;;;;11.48;60.29;23466.16;4990245;28;45531;-82
2023/04/14 07:39:08;;;;;;;;;5.00;5.00;;;;;11.78;60.21;22473.34;4989299;28;47579;-83
2023/04/14 07:41:34;;;;;;;;;4.00;4.00;;;;;11.70;60.39;22135.09;4982582;28;45463;-82
2023/04/14 07:43:59;;;;;;;;;4.33;4.00;;;;;11.70;60.35;22469.97;4994271;28;45605;-84
2023/04/14 07:46:25;;;;;;;;;5.67;5.67;;;;;11.87;60.18;22142.00;4975948;28;45528;-83
2023/04/14 07:48:50;;;;;;;;;6.67;6.00;;;;;11.89;60.53;21807.47;4988853;28;45565;-83
2023/04/14 07:51:19;;;;;;;;;5.67;4.00;;;;;11.64;60.32;22132.63;4990430;28;45871;-83
2023/04/14 07:53:44;;;;;;;;;4.00;4.00;;;;;11.78;60.44;21803.16;4981404;28;45424;-83
2023/04/14 07:56:11;;;;;;;;;6.33;5.00;;;;;11.97;60.03;21475.59;4994003;28;45484;-83
2023/04/14 07:58:37;;;;;;;;;5.00;5.00;;;;;12.02;60.24;20807.53;4984648;28;46613;-83
2023/04/14 08:01:03;;;;;;;;;5.33;2.67;;;;;11.83;60.01;21135.06;4986637;28;45666;-83
2023/04/14 08:03:28;;;;;;;;;5.00;5.00;;;;;12.08;60.11;21144.88;4992020;28;45415;-83
2023/04/14 08:05:54;;;;;;;;;4.00;4.00;;;;;12.10;60.02;21480.66;4981417;28;45438;-82
2023/04/14 08:08:19;;;;;;;;;6.33;6.33;;;;;12.07;60.26;20809.09;4997849;28;46660;-84
2023/04/14 08:10:45;;;;;;;;;5.67;4.00;;;;;11.97;59.93;20805.56;4996296;28;45479;-82
2023/04/14 08:13:10;;;;;;;;;3.00;3.00;;;;;12.06;59.81;21814.47;4998361;28;45780;-83
2023/04/14 08:15:35;;;;;;;;;5.67;5.67;;;;;12.00;59.91;21476.81;4998276;28;45371;-82
2023/04/14 08:18:01;;;;;;;;;3.67;3.67;;;;;12.16;59.77;21483.09;4997822;28;45447;-83
2023/04/14 08:20:27;;;;;;;;;3.00;3.00;;;;;11.78;59.94;21468.28;4979944;28;45508;-83
2023/04/14 08:22:52;;;;;;;;;7.00;5.00;;;;;12.13;59.86;21146.66;4980182;28;45570;-83
2023/04/14 08:25:17;;;;;;;;;3.33;3.33;;;;;11.23;59.84;21781.16;4997891;28;45556;-83
2023/04/14 08:27:43;;;;;;;;;4.33;4.33;;;;;11.75;60.00;21466.88;4997977;28;46127;-83
2023/04/14 08:30:09;;;;;;;;;4.00;4.00;;;;;11.76;59.51;21132.25;4979786;28;47778;-83
2023/04/14 08:32:34;;;;;;;;;4.00;4.00;;;;;11.95;60.05;21139.84;4993605;28;45381;-83
2023/04/14 08:35:00;;;;;;;;;2.67;2.67;;;;;12.22;59.79;21485.75;4977760;28;45547;-82
2023/04/14 08:37:26;;;;;;;;;3.67;3.67;;;;;12.22;59.76;21150.25;4977798;28;46138;-83
2023/04/14 08:39:51;;;;;;;;;4.33;4.33;;;;;12.23;59.56;21486.13;4977257;28;45410;-83
2023/04/14 08:42:19;;;;;;;;;1.33;1.33;;;;;12.29;59.85;20817.59;4978236;28;45542;-83
2023/04/14 08:44:45;;;;;;;;;5.00;3.67;;;;;12.02;59.92;20807.53;4978284;28;45771;-83
2023/04/14 08:47:11;;;;;;;;;3.33;2.00;;;;;12.12;59.93;21146.47;4977904;28;46544;-83
2023/04/14 08:49:44;;;;;;;;;2.33;2.33;;;;;12.31;59.43;21153.88;4977375;28;45481;-82
2023/04/14 08:52:11;;;;;;;;;2.67;2.67;;;;;12.16;59.62;21147.88;4978221;28;45469;-82
2023/04/14 08:54:39;;;;;;;;;1.00;1.00;;;;;12.36;59.64;21155.88;4977714;28;45522;-82
2023/04/14 08:57:08;;;;;;;;;2.33;2.00;;;;;12.16;59.85;21147.88;4977560;28;46391;-83
2023/04/14 08:59:34;;;;;;;;;1.00;1.00;;;;;12.14;59.47;21147.25;4976950;28;45875;-82
2023/04/14 09:01:59;;;;;;;;;3.00;3.00;;;;;12.41;59.57;20487.00;4977590;28;45997;-82
2023/04/14 09:04:26;;;;;;;;;6.00;3.00;;;;;12.33;59.69;20148.84;4978211;28;45423;-82
2023/04/14 09:06:51;;;;;;;;;3.00;3.00;;;;;12.42;59.81;19817.03;4975070;28;46366;-83
2023/04/14 09:09:17;;;;;;;;;1.00;1.00;;;;;12.42;59.67;20487.59;4976993;28;45669;-81
2023/04/14 09:11:43;;;;;;;;;0.67;0.67;;;;;12.30;59.64;20482.91;4977431;28;45897;-83
2023/04/14 09:14:10;;;;;;;;;1.67;0.67;;;;;12.45;59.09;20824.09;4991054;28;45427;-81
2023/04/14 09:16:36;;;;;;;;;1.00;1.00;;;;;12.54;59.65;20491.88;4981706;28;45737;-82
2023/04/14 09:19:03;;;;;;;;;2.67;1.33;;;;;12.48;59.54;20154.22;4982787;28;45416;-84
2023/04/14 09:21:28;;;;;;;;;3.00;3.00;;;;;12.08;59.33;20474.56;4988367;28;45475;-83
2023/04/14 09:23:54;;;;;;;;;1.67;1.00;;;;;12.13;59.36;20811.47;4982457;28;45440;-83
2023/04/14 09:26:19;;;;;;;;;0.67;0.67;;;;;12.51;59.39;20155.38;4981502;28;45625;-82
2023/04/14 09:28:44;;;;;;;;;2.33;2.33;;;;;12.29;59.27;20482.53;4960441;28;45558;-84
2023/04/14 09:31:10;;;;;;;;;1.67;1.67;;;;;12.09;59.56;20474.75;4991272;28;45432;-82
2023/04/14 09:33:42;;;;;;;;;0.00;0.00;;;;;12.39;59.59;20150.97;4977634;28;45570;-84
2023/04/14 09:36:18;;;;;;;;;1.67;1.67;;;;;12.53;59.72;19485.72;4988198;28;45494;-84
2023/04/14 09:38:44;;;;;;;;;2.00;2.00;;;;;12.32;59.88;19478.06;4983839;28;45526;-83
2023/04/14 09:41:15;;;;;;;;;2.00;1.33;;;;;12.50;59.26;19819.69;4976617;28;45905;-83
2023/04/14 09:43:41;;;;;;;;;2.67;2.67;;;;;12.29;59.61;19811.94;4966001;28;45625;-83
2023/04/14 09:46:08;;;;;;;;;1.33;1.33;;;;;12.37;59.75;19144.56;4975998;28;46484;-81
2023/04/14 09:48:35;;;;;;;;;2.00;2.00;;;;;12.63;60.02;18483.56;4992075;28;45905;-81
2023/04/14 09:51:05;;;;;;;;;1.67;1.67;;;;;12.49;59.82;18478.41;4990255;28;45484;-81
2023/04/14 09:53:33;;;;;;;;;1.33;1.33;;;;;12.71;59.78;18150.78;4987508;28;45452;-82
2023/04/14 09:56:01;;;;;;;;;1.00;1.00;;;;;12.46;60.07;18142.53;4981245;28;47187;-81
2023/04/14 09:58:37;;;;;;;;;0.67;0.67;;;;;12.46;59.63;18477.69;4992668;28;45670;-82
2023/04/14 10:01:04;;;;;;;;;0.67;0.67;;;;;12.77;59.95;17482.53;4982899;28;45448;-82
2023/04/14 10:03:33;;;;;;;;;3.67;2.00;;;;;12.75;60.25;16811.44;4986324;28;45498;-83
2023/04/14 10:06:00;;;;;;;;;0.33;0.33;;;;;12.76;60.02;16811.63;4977032;28;45697;-83
2023/04/14 10:08:37;;;;;;;;;0.67;0.67;;;;;12.63;60.29;16807.50;4979820;28;45584;-83
2023/04/14 10:11:19;;;;;;;;;0.67;0.67;;;;;12.79;59.93;16477.59;4976912;28;45345;-81
2023/04/14 10:13:46;;;;;;;;;0.33;0.33;;;;;12.65;60.47;15802.97;4995389;28;45470;-81
2023/04/14 10:16:12;;;;;;;;;0.33;0.33;;;;;12.83;60.20;15808.41;4996332;28;47366;-80
2023/04/14 10:18:51;;;;;;;;;0.33;0.33;;;;;12.83;60.03;16143.56;4996286;28;45428;-81
2023/04/14 10:21:16;;;;;;;;;1.33;1.33;;;;;12.84;60.20;15808.72;4995788;28;45444;-82
2023/04/14 10:23:43;;;;;;;;;2.00;1.00;;;;;12.52;60.16;15129.19;4996514;28;45475;-82
2023/04/14 10:26:10;;;;;;;;;0.67;0.67;;;;;12.44;60.20;15461.66;4996438;28;46586;-83
2023/04/14 10:28:44;;;;;;;;;1.33;1.33;;;;;12.84;60.71;14468.59;4996021;28;45527;-83
2023/04/14 10:31:19;;;;;;;;;0.67;0.67;;;;;12.87;60.56;15139.44;4996359;28;45459;-83
2023/04/14 10:33:45;;;;;;;;;0.67;0.67;;;;;12.31;61.07;12780.13;4978641;28;45465;-83
2023/04/14 10:36:11;;;;;;;;;0.67;0.67;;;;;12.18;61.22;12108.00;4995529;28;45912;-82
2023/04/14 10:38:41;;;;;;;;;1.33;0.00;;;;;12.50;61.53;11446.47;4995859;28;45463;-82
2023/04/14 10:41:07;;;;;;;;;0.00;0.00;;;;;12.87;61.68;11120.47;4996314;28;45641;-82
2023/04/14 10:43:35;;;;;;;;;0.67;0.67;;;;;12.84;61.71;9781.22;4996333;28;45364;-83
2023/04/14 10:46:02;;;;;;;;;0.67;0.67;;;;;12.48;61.44;10107.97;4995994;28;46516;-83
2023/04/14 10:48:39;;;;;;;;;1.67;0.67;;;;;12.55;61.63;9775.03;4990156;28;45495;-83
2023/04/14 10:51:09;;;;;;;;;0.33;0.33;;;;;12.86;61.45;9781.53;4976245;28;45343;-83
2023/04/14 10:53:46;;;;;;;;;0.00;0.00;;;;;12.86;61.36;9781.63;4976920;28;45419;-83
2023/04/14 10:56:12;;;;;;;;;0.67;0.67;;;;;12.89;61.44;9782.16;4976102;28;46271;-84
2023/04/14 10:58:38;;;;;;;;;0.00;0.00;;;;;12.89;61.73;8778.47;4975991;28;45496;-84
2023/04/14 11:01:41;;;;;;;;;2.00;1.33;;;;;12.90;61.71;8444.03;4958710;28;45904;-84
2023/04/14 11:04:17;;;;;;;;;0.67;0.67;;;;;12.37;61.69;8768.50;4975970;28;45460;-85
2023/04/14 11:06:45;;;;;;;;;0.67;0.67;;;;;12.88;61.55;9112.84;4976058;28;47275;-83
2023/04/14 11:09:29;;;;;;;;;0.33;0.33;;;;;12.92;61.73;8444.31;4975887;28;45590;-83
2023/04/14 11:11:57;;;;;;;;;0.00;0.00;;;;;12.95;61.72;8444.91;4976324;28;45481;-83
2023/04/14 11:14:29;;;;;;;;;0.33;0.33;;;;;12.97;62.12;7107.25;4939288;28;45438;-82
2023/04/14 11:16:59;;;;;;;;;2.00;1.00;;;;;12.77;63.33;3094.00;4956416;28;46080;-82
2023/04/14 11:19:25;;;;;;;;;1.33;0.67;;;;;12.40;62.93;2756.53;4956130;28;45512;-82
2023/04/14 11:21:52;;;;;;;;;0.00;0.00;;;;;12.71;63.48;756.41;4939244;28;45426;-83
2023/04/14 11:24:20;;;;;;;;;0.00;0.00;;;;;12.22;63.67;-913.75;4975413;28;45356;-82
2023/04/14 11:26:46;;;;;;;;;0.67;0.00;;;;;12.16;63.72;-247.28;4958281;28;47612;-82
2023/04/14 11:29:12;;;;;;;;;0.00;0.00;;;;;11.82;64.37;-3579.34;4975811;28;45507;-82
2023/04/14 11:31:43;;;;;;;;;1.00;1.00;;;;;12.11;64.63;-4578.63;4975923;28;45450;-82
2023/04/14 11:34:09;;;;;;;;;1.33;1.33;;;;;12.95;64.75;-4913.97;4976112;28;45802;-84
2023/04/14 11:39:56;;;;;;;;;0.67;0.67;;;;;11.54;64.16;-4244.59;4975335;28;45421;-85
2023/04/14 11:45:45;;;;;;;;;0.00;0.00;;;;;12.93;63.84;-3913.66;4949152;28;45609;-83
2023/04/14 11:48:14;;;;;;;;;0.33;0.33;;;;;12.83;64.16;-4913.66;4963243;28;47261;-85
2023/04/14 11:50:41;;;;;;;;;1.00;0.67;;;;;12.87;64.38;-5913.72;4975129;28;45367;-85
2023/04/14 11:53:08;;;;;;;;;1.00;0.33;;;;;12.61;64.30;-5912.53;4975177;28;45694;-85
2023/04/14 11:55:34;;;;;;;;;0.00;0.00;;;;;12.31;64.56;-6909.97;4976067;28;45385;-85
2023/04/14 11:58:00;;;;;;;;;0.00;0.00;;;;;12.77;65.08;-8245.00;4974965;28;46166;-85
2023/04/14 12:00:28;;;;;;;;;0.67;0.67;;;;;12.67;64.77;-6579.06;4974680;28;45506;-86
2023/04/14 12:02:55;;;;;;;;;0.00;0.00;;;;;12.15;64.23;-6576.16;4974839;28;45539;-86
2023/04/14 12:05:32;;;;;;;;;1.00;0.67;;;;;12.17;65.54;-7907.38;4975189;28;45541;-86
2023/04/14 12:07:59;;;;;;;;;1.33;0.00;;;;;13.03;65.57;-9246.47;4975086;28;46226;-86
2023/04/14 12:10:25;;;;;;;;;0.00;0.00;;;;;12.54;66.66;-12235.75;4975205;28;45357;-83
2023/04/14 12:12:58;;;;;;;;;0.33;0.33;;;;;12.65;70.35;-19549.44;4977089;28;45511;-86
2023/04/14 12:15:24;;;;;;;;;1.67;0.67;;;;;12.77;72.93;-19552.69;4978180;28;45484;-83
2023/04/14 12:17:50;;;;;;;;;0.00;0.00;;;;;12.20;76.35;-19537.59;4977153;28;46522;-85
2023/04/14 12:20:16;;;;;;;;;1.67;0.67;;;;;12.32;78.69;-19540.69;4978296;28;45417;-86
2023/04/14 12:22:42;;;;;;;;;0.67;0.67;;;;;12.41;81.61;-19543.25;4979024;28;45557;-86
2023/04/14 12:25:13;;;;;;;;;0.00;0.00;;;;;12.32;81.84;-19540.84;4979230;28;45405;-87
2023/04/14 12:27:38;;;;;;;;;0.00;0.00;;;;;12.01;81.37;-19532.63;4978910;28;46599;-86
2023/04/14 12:30:04;;;;;;;;;0.67;0.67;;;;;12.23;80.39;-19538.53;4978662;28;45595;-87
2023/04/14 12:32:40;;;;;;;;;0.67;0.67;;;;;12.22;84.06;-19538.28;4978556;28;45416;-86
2023/04/14 12:35:06;;;;;;;;;0.33;0.33;;;;;11.95;85.04;-19531.13;4978900;28;45518;-86
2023/04/14 12:37:33;;;;;;;;;1.00;0.00;;;;;11.80;87.58;-19527.22;4978658;28;47134;-86
2023/04/14 12:40:05;;;;;;;;;0.33;0.33;;;;;11.48;87.45;-19518.75;4978353;28;45499;-87
2023/04/14 12:42:48;;;;;;;;;2.00;1.00;;;;;11.86;91.77;-19528.56;4978549;28;45532;-84
2023/04/14 12:45:15;;;;;;;;;2.00;0.67;;;;;11.46;93.70;-16315.38;4978818;28;45490;-87
2023/04/14 12:47:59;;;;;;;;;3.00;0.00;;;;;10.54;100.00;15650.31;4975537;28;45702;-87
2023/04/14 12:50:29;;;;;;;;;0.00;0.00;;;;;11.94;97.98;2580.22;4961340;28;45505;-84
2023/04/14 12:52:55;;;;;;;;;0.00;0.00;;;;;11.93;98.16;2129.47;4980024;28;45427;-83
2023/04/14 12:55:29;;;;;;;;;0.00;0.00;;;;;11.02;98.84;7109.13;4976221;28;45590;-83
2023/04/14 12:57:57;;;;;;;;;0.00;0.00;;;;;12.08;100.00;36357.09;4959788;28;47341;-84
2023/04/14 13:00:25;;;;;;;;;0.00;0.00;;;;;12.04;100.00;33122.59;4977875;28;45509;-86
2023/04/14 13:02:50;;;;;;;;;0.00;0.00;;;;;11.59;100.00;47516.13;4978334;28;45449;-85
2023/04/14 13:05:16;;;;;;;;;2.00;1.00;;;;;11.28;100.00;68411.19;4977746;28;45580;-85
2023/04/14 13:07:42;;;;;;;;;1.00;0.00;;;;;11.48;100.00;78088.75;4977408;28;45490;-83
2023/04/14 13:10:08;;;;;;;;;1.00;1.00;;;;;11.89;100.00;88310.75;4975438;28;45537;-85
2023/04/14 13:12:33;;;;;;;;;0.00;0.00;;;;;11.80;100.00;100248.09;4978353;28;45483;-86
2023/04/14 13:14:59;;;;;;;;;0.00;0.00;;;;;11.76;100.00;105039.16;4955694;28;45656;-84
2023/04/14 13:17:24;;;;;;;;;2.00;0.67;;;;;10.78;100.00;113033.53;4958431;28;45580;-85
2023/04/14 13:19:50;;;;;;;;;2.00;2.00;;;;;11.71;100.00;121077.19;4958151;28;45440;-85
2023/04/14 13:22:15;;;;;;;;;1.00;1.00;;;;;11.16;100.00;127683.63;4958319;28;45353;-83
2023/04/14 13:24:41;;;;;;;;;0.67;0.00;;;;;10.83;100.00;132076.59;4962395;28;45492;-85
2023/04/14 13:27:10;;;;;;;;;1.00;1.00;;;;;11.01;100.00;132892.97;4974327;28;46222;-85
2023/04/14 13:29:35;;;;;;;;;1.67;1.67;;;;;10.73;100.00;135141.66;4977366;28;45487;-86
2023/04/14 13:32:01;;;;;;;;;0.67;0.67;;;;;10.61;100.00;132359.88;4978055;28;45449;-88
2023/04/14 13:34:27;;;;;;;;;0.00;0.00;;;;;11.63;100.00;131992.19;4974787;28;45574;-85
2023/04/14 13:36:53;;;;;;;;;0.00;0.00;;;;;11.61;100.00;130329.38;4975554;28;46301;-85
2023/04/14 13:39:19;;;;;;;;;1.33;1.00;;;;;11.69;100.00;131619.94;4975407;28;45568;-86
2023/04/14 13:41:44;;;;;;;;;2.33;1.00;;;;;10.31;100.00;132874.00;4956389;28;45539;-84
2023/04/14 13:44:09;;;;;;;;;0.00;0.00;;;;;10.64;100.00;131175.34;4956564;28;45387;-85
2023/04/14 13:46:35;;;;;;;;;1.67;1.33;;;;;11.04;100.00;132506.22;4976580;28;46102;-84
2023/04/14 13:49:01;;;;;;;;;1.33;1.00;;;;;10.60;100.00;132763.19;4977599;28;45485;-84
2023/04/14 13:51:27;;;;;;;;;1.00;1.00;;;;;11.76;100.00;133402.16;4977407;28;45424;-84
2023/04/14 13:53:55;;;;;;;;;1.00;1.00;;;;;11.01;100.00;131780.28;4977544;28;45569;-86
2023/04/14 13:56:30;;;;;;;;;1.67;1.67;;;;;10.30;100.00;131779.09;4974025;28;46195;-90
2023/04/14 13:58:55;;;;;;;;;2.33;1.00;;;;;11.09;100.00;132325.13;4971365;28;45533;-85
2023/04/14 14:01:21;;;;;;;;;0.67;0.67;;;;;11.41;100.00;130464.84;4976332;28;45515;-86
2023/04/14 14:04:08;;;;;;;;;1.00;1.00;;;;;10.45;100.00;126956.13;4972937;28;45779;-85
2023/04/14 14:14:09;;;;;;;;;0.67;0.67;;;;;11.79;100.00;125560.81;4838204;29;46693;-87
2023/04/14 14:23:39;;;;;;;;;0.00;0.00;;;;;11.11;100.00;129161.59;4961594;23;46667;-86
2023/04/14 14:26:08;;;;;;;;;2.00;1.00;;;;;10.85;100.00;131138.16;4969400;28;45496;-86
2023/04/14 14:28:37;;;;;;;;;1.67;0.00;;;;;10.44;100.00;129633.88;4975543;28;45655;-86
2023/04/14 14:31:05;;;;;;;;;0.00;0.00;;;;;11.07;100.00;130098.25;4972058;28;47525;-86
2023/04/14 14:33:30;;;;;;;;;0.00;0.00;;;;;11.73;100.00;130633.63;4991459;23;45571;-87
2023/04/14 14:35:56;;;;;;;;;1.00;1.00;;;;;11.66;100.00;131875.25;4976670;28;45587;-89
2023/04/14 14:38:21;;;;;;;;;0.00;0.00;;;;;11.84;100.00;131232.38;4938453;28;46985;-84
2023/04/14 14:40:47;;;;;;;;;0.00;0.00;;;;;11.81;100.00;130103.91;4963331;28;46953;-84
2023/04/14 14:43:12;;;;;;;;;0.33;0.00;;;;;11.83;100.00;129074.50;4965827;28;45430;-84
2023/04/14 14:45:38;;;;;;;;;0.33;0.33;;;;;11.53;100.00;130383.00;4958101;28;45397;-87
2023/04/14 14:48:03;;;;;;;;;1.00;1.00;;;;;11.82;100.00;127769.44;4966580;28;45473;-85
2023/04/14 14:50:28;;;;;;;;;1.00;1.00;;;;;11.79;100.00;128284.34;4961480;28;46042;-85
2023/04/14 14:52:55;;;;;;;;;0.00;0.00;;;;;11.74;100.00;127401.41;4964373;28;45402;-86
2023/04/14 14:55:21;;;;;;;;;2.00;0.00;;;;;11.67;100.00;128938.09;4967603;28;45813;-88
2023/04/14 14:57:46;;;;;;;;;0.00;0.00;;;;;11.75;100.00;126941.34;4943557;28;45615;-85
2023/04/14 15:00:12;;;;;;;;;2.00;1.00;;;;;11.67;100.00;127845.69;4961334;28;47445;-87
2023/04/14 15:02:37;;;;;;;;;1.33;0.00;;;;;11.77;100.00;127077.38;4957955;28;45562;-84
2023/04/14 15:05:03;;;;;;;;;0.00;0.00;;;;;11.78;100.00;126105.16;4967151;28;45667;-84
2023/04/14 15:07:28;;;;;;;;;1.67;1.67;;;;;11.83;100.00;127098.50;4962917;28;45437;-83
2023/04/14 15:09:53;;;;;;;;;0.00;0.00;;;;;11.82;100.00;125229.84;4971703;28;47392;-83
2023/04/14 15:12:19;;;;;;;;;1.00;1.00;;;;;11.65;100.00;124808.25;4941525;28;45591;-83
2023/04/14 15:14:44;;;;;;;;;0.67;0.00;;;;;11.61;100.00;125357.78;4956693;28;45548;-83
2023/04/14 15:17:10;;;;;;;;;1.00;1.00;;;;;11.82;100.00;125546.88;4956585;28;45397;-83
2023/04/14 15:19:35;;;;;;;;;1.00;1.00;;;;;11.76;100.00;123033.59;4958696;28;50498;-84
2023/04/14 15:22:00;;;;;;;;;1.00;1.00;;;;;11.71;100.00;122435.19;4956341;28;49525;-83
2023/04/14 15:24:25;;;;;;;;;0.00;0.00;;;;;11.68;100.00;121601.22;4961458;28;45770;-81
2023/04/14 15:26:51;;;;;;;;;1.33;1.33;;;;;11.87;100.00;122990.22;4956749;28;45567;-88
2023/04/14 15:29:18;;;;;;;;;1.00;1.00;;;;;11.86;100.00;120454.06;4962449;28;47283;-88
2023/04/14 15:31:43;;;;;;;;;0.67;0.67;;;;;11.87;100.00;119983.84;4961116;28;45474;-88
2023/04/14 15:34:08;;;;;;;;;0.67;0.00;;;;;11.71;100.00;119758.84;4961670;28;46005;-88
2023/04/14 15:36:34;;;;;;;;;0.33;0.33;;;;;11.92;100.00;119434.38;4971171;28;45625;-88
2023/04/14 15:38:59;;;;;;;;;0.67;0.67;;;;;11.96;100.00;119292.31;4975174;28;47047;-87
2023/04/14 15:41:25;;;;;;;;;1.33;1.33;;;;;11.97;100.00;118574.25;4974830;28;45480;-87
2023/04/14 15:43:50;;;;;;;;;1.00;1.00;;;;;11.98;100.00;117372.84;4976613;28;45373;-88
2023/04/14 15:46:16;;;;;;;;;2.00;1.33;;;;;11.99;100.00;117068.13;4975042;28;45518;-88
2023/04/14 15:48:41;;;;;;;;;2.00;1.00;;;;;11.96;100.00;117677.31;4966838;28;46502;-89
2023/04/14 15:51:06;;;;;;;;;1.00;1.00;;;;;12.00;100.00;116363.13;4966314;28;45546;-88
2023/04/14 15:53:32;;;;;;;;;0.00;0.00;;;;;11.96;100.00;116842.19;4967350;28;45419;-87
2023/04/14 15:55:57;;;;;;;;;3.00;1.00;;;;;12.06;100.00;116341.94;4969600;28;45488;-87
2023/04/14 15:58:23;;;;;;;;;1.00;1.00;;;;;12.12;100.00;115471.59;4973629;28;47480;-87
2023/04/14 16:00:48;;;;;;;;;0.67;0.67;;;;;12.12;100.00;114687.72;4965983;28;45606;-86
2023/04/14 16:03:15;;;;;;;;;1.00;1.00;;;;;11.87;100.00;114744.03;4973245;28;45464;-86
2023/04/14 16:05:41;;;;;;;;;0.33;0.33;;;;;12.03;100.00;114180.50;4965454;28;45469;-86
2023/04/14 16:08:07;;;;;;;;;1.33;1.33;;;;;12.09;100.00;114127.91;4971948;28;46897;-86
2023/04/14 16:10:32;;;;;;;;;1.00;1.00;;;;;12.01;100.00;113085.94;4960729;28;45388;-86
2023/04/14 16:12:57;;;;;;;;;2.33;0.67;;;;;12.13;100.00;113055.63;4962059;28;45524;-86
2023/04/14 16:15:23;;;;;;;;;3.00;3.00;;;;;12.13;100.00;112602.75;4965387;28;45535;-88
2023/04/14 16:17:49;;;;;;;;;1.00;1.00;;;;;12.00;100.00;111994.59;4966600;28;45674;-86
2023/04/14 16:20:17;;;;;;;;;1.33;1.33;;;;;12.00;100.00;111533.91;4940314;28;45420;-85
2023/04/14 16:22:42;;;;;;;;;2.00;2.00;;;;;12.01;100.00;110985.84;4964651;28;45610;-86
2023/04/14 16:25:08;;;;;;;;;0.67;0.67;;;;;12.15;100.00;111390.22;4974174;28;45420;-86
2023/04/14 16:27:33;;;;;;;;;1.33;1.33;;;;;12.19;100.00;111244.16;4967949;28;46331;-86
2023/04/14 16:29:58;;;;;;;;;2.33;1.33;;;;;12.20;100.00;111372.00;4965293;28;47506;-86
2023/04/14 16:32:24;;;;;;;;;1.00;1.00;;;;;12.14;100.00;110595.41;4963540;28;46035;-86
2023/04/14 16:34:49;;;;;;;;;0.00;0.00;;;;;12.11;100.00;109480.19;4960750;28;45692;-86
2023/04/14 16:37:15;;;;;;;;;4.00;2.00;;;;;12.11;100.00;109157.16;4977720;28;46193;-86
2023/04/14 16:39:40;;;;;;;;;0.67;0.67;;;;;12.15;100.00;108160.75;4975876;28;45515;-88
2023/04/14 16:42:06;;;;;;;;;3.00;2.00;;;;;12.17;100.00;107505.06;4984757;28;45488;-87
2023/04/14 16:44:32;;;;;;;;;3.00;1.33;;;;;12.16;100.00;105457.25;4994662;28;45380;-88
2023/04/14 16:46:57;;;;;;;;;2.00;2.00;;;;;12.18;100.00;104593.31;4994316;28;46162;-87
2023/04/14 16:49:22;;;;;;;;;1.00;1.00;;;;;12.12;100.00;103810.66;4982440;28;45511;-88
2023/04/14 16:51:48;;;;;;;;;1.00;1.00;;;;;12.16;100.00;102732.31;4979203;28;45755;-88